createdAt,value
2022-08-30T00:01:00.452Z,2.38
2022-08-30T00:03:27.556Z,2.90
2022-08-30T00:05:56.333Z,3.00
2022-08-30T00:08:23.543Z,3.05
2022-08-30T00:10:51.291Z,2.75
2022-08-30T00:13:18.903Z,2.83
2022-08-30T00:15:46.376Z,2.50
2022-08-30T00:18:13.461Z,2.65
2022-08-30T00:20:40.722Z,2.80
2022-08-30T00:23:07.703Z,2.60
2022-08-30T00:25:34.833Z,2.50
2022-08-30T00:28:02.582Z,2.80
2022-08-30T00:30:29.706Z,2.53
2022-08-30T00:32:56.710Z,2.60
2022-08-30T00:35:23.835Z,2.35
2022-08-30T00:37:50.962Z,2.28
2022-08-30T00:40:20.509Z,2.35
2022-08-30T00:42:59.286Z,2.42
2022-08-30T00:45:32.518Z,2.88
2022-08-30T00:47:59.622Z,2.45
2022-08-30T00:50:29.555Z,2.85
2022-08-30T00:52:58.314Z,2.35
2022-08-30T00:55:25.362Z,2.45
2022-08-30T00:57:54.275Z,2.58
2022-08-30T01:00:21.264Z,2.33
2022-08-30T01:02:49.132Z,2.50
2022-08-30T01:05:18.603Z,2.35
2022-08-30T01:07:45.560Z,2.30
2022-08-30T01:10:13.482Z,2.55
2022-08-30T01:12:40.726Z,3.08
2022-08-30T01:15:08.422Z,2.22
2022-08-30T01:17:35.506Z,2.50
2022-08-30T01:20:07.304Z,2.45
2022-08-30T01:25:25.178Z,2.50
2022-08-30T01:28:03.975Z,2.60
2022-08-30T01:30:31.614Z,2.30
2022-08-30T01:33:03.644Z,2.13
2022-08-30T01:35:35.528Z,2.55
2022-08-30T01:38:02.509Z,2.50
2022-08-30T01:40:29.643Z,2.50
2022-08-30T01:42:56.600Z,2.58
2022-08-30T01:45:23.573Z,2.60
2022-08-30T01:47:50.699Z,2.47
2022-08-30T01:50:17.736Z,2.50
2022-08-30T01:52:44.907Z,2.60
2022-08-30T01:55:11.848Z,2.58
2022-08-30T01:57:38.765Z,2.70
2022-08-30T02:00:07.640Z,2.33
2022-08-30T02:02:38.790Z,2.30
2022-08-30T02:05:06.282Z,2.47
2022-08-30T02:07:33.251Z,2.60
2022-08-30T02:10:00.190Z,2.35
2022-08-30T02:12:27.691Z,2.40
2022-08-30T02:14:54.696Z,2.03
2022-08-30T02:17:21.726Z,2.40
2022-08-30T02:19:48.738Z,2.40
2022-08-30T02:22:16.765Z,2.20
2022-08-30T02:24:43.749Z,2.17
2022-08-30T02:27:10.650Z,2.28
2022-08-30T02:29:37.564Z,2.22
2022-08-30T02:32:04.555Z,2.33
2022-08-30T02:34:31.625Z,2.10
2022-08-30T02:36:58.724Z,2.40
2022-08-30T02:39:25.807Z,2.50
2022-08-30T02:41:52.689Z,2.38
2022-08-30T02:44:19.702Z,2.40
2022-08-30T02:46:46.637Z,2.72
2022-08-30T02:49:32.521Z,2.30
2022-08-30T02:52:00.139Z,2.10
2022-08-30T02:54:28.527Z,2.33
2022-08-30T02:56:58.707Z,2.67
2022-08-30T02:59:26.925Z,2.38
2022-08-30T03:01:53.801Z,2.60
2022-08-30T03:04:26.554Z,2.60
2022-08-30T03:06:54.351Z,3.00
2022-08-30T03:09:22.351Z,2.60
2022-08-30T03:11:49.281Z,2.50
2022-08-30T03:14:16.393Z,2.58
2022-08-30T03:16:43.363Z,2.65
2022-08-30T03:19:10.326Z,2.40
2022-08-30T03:21:37.726Z,2.22
2022-08-30T03:24:04.853Z,2.60
2022-08-30T03:26:31.825Z,2.40
2022-08-30T03:28:59.297Z,2.45
2022-08-30T03:31:26.271Z,2.65
2022-08-30T03:33:53.483Z,2.50
2022-08-30T03:36:21.139Z,2.50
2022-08-30T03:38:48.037Z,2.40
2022-08-30T03:41:16.187Z,2.38
2022-08-30T03:43:44.216Z,2.58
2022-08-30T03:46:11.406Z,2.92
2022-08-30T03:48:38.520Z,2.45
2022-08-30T03:51:06.016Z,2.33
2022-08-30T03:53:33.329Z,2.42
2022-08-30T03:56:00.286Z,2.70
2022-08-30T03:58:27.222Z,2.60
2022-08-30T04:00:54.198Z,2.38
2022-08-30T04:03:25.921Z,2.47
2022-08-30T04:08:20.834Z,2.95
2022-08-30T04:10:48.130Z,2.80
2022-08-30T04:13:15.849Z,2.80
2022-08-30T04:15:43.146Z,2.55
2022-08-30T04:18:10.312Z,2.55
2022-08-30T04:20:37.811Z,2.40
2022-08-30T04:23:07.470Z,2.50
2022-08-30T04:25:35.393Z,2.58
2022-08-30T04:28:02.893Z,2.63
2022-08-30T04:30:29.895Z,2.92
2022-08-30T04:32:58.848Z,2.53
2022-08-30T04:35:26.140Z,2.72
2022-08-30T04:37:53.037Z,2.78
2022-08-30T04:40:20.621Z,2.72
2022-08-30T04:42:47.736Z,2.10
2022-08-30T04:45:15.932Z,2.63
2022-08-30T04:47:43.310Z,2.70
2022-08-30T04:50:11.732Z,2.60
2022-08-30T04:52:38.813Z,2.83
2022-08-30T04:55:06.485Z,2.80
2022-08-30T04:57:33.521Z,2.80
2022-08-30T05:00:00.648Z,2.58
2022-08-30T05:02:27.767Z,2.92
2022-08-30T05:05:14.166Z,2.50
2022-08-30T05:07:41.341Z,2.50
2022-08-30T05:10:11.387Z,2.40
2022-08-30T05:12:39.216Z,2.70
2022-08-30T05:15:06.652Z,2.42
2022-08-30T05:17:33.987Z,2.58
2022-08-30T05:20:02.306Z,2.60
2022-08-30T05:22:29.274Z,2.80
2022-08-30T05:24:56.486Z,2.53
2022-08-30T05:27:23.417Z,3.28
2022-08-30T05:29:50.379Z,2.55
2022-08-30T05:32:17.982Z,2.80
2022-08-30T05:34:45.053Z,3.00
2022-08-30T05:37:11.970Z,2.70
2022-08-30T05:39:50.885Z,2.45
2022-08-30T05:42:19.276Z,2.40
2022-08-30T05:44:46.376Z,2.40
2022-08-30T05:47:13.286Z,2.67
2022-08-30T05:49:40.242Z,2.70
2022-08-30T05:52:07.268Z,2.85
2022-08-30T05:54:34.269Z,2.50
2022-08-30T05:57:01.203Z,2.38
2022-08-30T05:59:28.130Z,2.83
2022-08-30T06:01:57.356Z,2.35
2022-08-30T06:04:24.536Z,2.30
2022-08-30T06:06:51.770Z,2.72
2022-08-30T06:09:19.700Z,2.47
2022-08-30T06:11:46.850Z,2.50
2022-08-30T06:14:14.122Z,2.35
2022-08-30T06:16:41.272Z,2.42
2022-08-30T06:19:08.626Z,2.63
2022-08-30T06:21:36.085Z,2.80
2022-08-30T06:24:03.953Z,2.58
2022-08-30T06:29:03.009Z,2.35
2022-08-30T06:31:29.970Z,2.55
2022-08-30T06:33:56.960Z,2.33
2022-08-30T06:36:24.786Z,2.35
2022-08-30T06:38:52.967Z,2.60
2022-08-30T06:41:22.453Z,2.63
2022-08-30T06:43:49.607Z,2.38
2022-08-30T06:46:19.234Z,2.55
2022-08-30T06:48:48.285Z,2.60
2022-08-30T06:51:16.104Z,2.30
2022-08-30T06:53:43.228Z,2.00
2022-08-30T06:56:10.751Z,2.45
2022-08-30T06:58:38.678Z,2.45
2022-08-30T07:01:06.254Z,2.70
2022-08-30T07:03:34.449Z,2.17
2022-08-30T07:06:01.358Z,2.35
2022-08-30T07:08:28.335Z,2.25
2022-08-30T07:10:55.306Z,2.88
2022-08-30T07:13:24.013Z,2.60
2022-08-30T07:15:51.320Z,2.78
2022-08-30T07:18:36.700Z,2.50
2022-08-30T07:21:08.650Z,2.13
2022-08-30T07:23:35.793Z,2.28
2022-08-30T07:26:10.435Z,2.25
2022-08-30T07:28:38.178Z,2.20
2022-08-30T07:33:38.337Z,2.90
2022-08-30T07:36:05.510Z,2.40
2022-08-30T07:38:32.453Z,2.20
2022-08-30T07:41:01.222Z,2.53
2022-08-30T07:43:29.098Z,2.40
2022-08-30T07:45:58.111Z,2.30
2022-08-30T07:48:25.140Z,2.53
2022-08-30T07:50:57.066Z,2.20
2022-08-30T07:53:25.422Z,2.25
2022-08-30T07:55:52.513Z,2.40
2022-08-30T07:58:19.776Z,2.75
2022-08-30T08:00:47.548Z,2.38
2022-08-30T08:03:14.537Z,2.28
2022-08-30T08:05:42.616Z,2.40
2022-08-30T08:08:10.067Z,2.40
2022-08-30T08:10:38.335Z,2.58
2022-08-30T08:13:05.843Z,2.53
2022-08-30T08:15:33.055Z,2.22
2022-08-30T08:18:01.282Z,3.25
2022-08-30T08:20:28.589Z,2.42
2022-08-30T08:22:55.706Z,2.80
2022-08-30T08:25:23.296Z,2.75
2022-08-30T08:27:50.955Z,2.50
2022-08-30T08:30:21.624Z,2.40
2022-08-30T08:32:48.868Z,2.80
2022-08-30T08:35:16.604Z,2.63
2022-08-30T08:37:43.790Z,2.53
2022-08-30T08:40:14.540Z,2.33
2022-08-30T08:43:05.529Z,2.77
2022-08-30T08:45:39.072Z,2.43
2022-08-30T08:48:20.505Z,2.53
2022-08-30T08:51:10.795Z,2.70
2022-08-30T08:53:46.512Z,2.50
2022-08-30T08:56:15.685Z,2.58
2022-08-30T08:58:47.625Z,2.53
2022-08-30T09:01:16.232Z,2.53
2022-08-30T09:03:43.402Z,2.60
2022-08-30T09:06:49.121Z,2.40
2022-08-30T09:09:18.298Z,2.40
2022-08-30T09:11:46.282Z,2.45
2022-08-30T09:14:16.970Z,2.10
2022-08-30T09:16:47.925Z,2.42
2022-08-30T09:19:29.517Z,2.50
2022-08-30T09:22:04.219Z,2.33
2022-08-30T09:24:42.818Z,2.40
2022-08-30T09:27:25.269Z,2.38
2022-08-30T09:29:57.310Z,2.00
2022-08-30T09:32:33.190Z,2.30
2022-08-30T09:35:00.301Z,2.20
2022-08-30T09:37:28.413Z,2.30
2022-08-30T09:39:55.542Z,2.42
2022-08-30T09:42:25.480Z,2.15
2022-08-30T09:45:10.511Z,2.38
2022-08-30T09:47:44.188Z,2.35
2022-08-30T09:50:16.817Z,2.20
2022-08-30T09:53:23.872Z,2.40
2022-08-30T09:56:03.891Z,3.00
2022-08-30T09:59:00.110Z,2.95
2022-08-30T10:01:33.109Z,3.17
2022-08-30T10:04:14.014Z,2.50
2022-08-30T10:09:32.213Z,2.45
2022-08-30T10:12:02.269Z,2.28
2022-08-30T10:14:57.272Z,2.50
2022-08-30T10:17:42.263Z,2.22
2022-08-30T10:20:35.056Z,2.88
2022-08-30T10:23:09.543Z,2.40
2022-08-30T10:25:51.951Z,2.22
2022-08-30T10:28:31.291Z,2.40
2022-08-30T10:31:04.079Z,2.28
2022-08-30T10:33:45.631Z,2.40
2022-08-30T10:36:13.661Z,2.50
2022-08-30T10:38:42.612Z,2.40
2022-08-30T10:41:38.598Z,2.58
2022-08-30T10:44:38.199Z,2.38
2022-08-30T10:50:41.518Z,1.98
2022-08-30T10:53:19.359Z,2.00
2022-08-30T10:55:50.385Z,2.67
2022-08-30T10:58:18.583Z,2.25
2022-08-30T11:01:00.687Z,2.50
2022-08-30T11:03:46.093Z,2.50
2022-08-30T11:06:33.336Z,2.28
2022-08-30T11:09:18.726Z,2.28
2022-08-30T11:12:31.137Z,2.38
2022-08-30T11:14:59.240Z,2.28
2022-08-30T11:17:30.695Z,2.20
2022-08-30T11:19:59.232Z,2.40
2022-08-30T11:22:39.039Z,2.42
2022-08-30T11:25:17.067Z,2.40
2022-08-30T11:27:53.170Z,2.30
2022-08-30T11:30:26.684Z,4.40
2022-08-30T11:32:58.172Z,2.35
2022-08-30T11:35:48.439Z,2.47
2022-08-30T11:38:30.719Z,2.20
2022-08-30T11:41:00.441Z,3.17
2022-08-30T11:43:47.485Z,2.30
2022-08-30T11:46:20.337Z,3.05
2022-08-30T11:48:55.463Z,2.20
2022-08-30T11:52:23.754Z,2.45
2022-08-30T11:55:07.053Z,2.20
2022-08-30T11:57:52.745Z,2.10
2022-08-30T12:00:30.011Z,2.13
2022-08-30T12:03:03.761Z,2.30
2022-08-30T12:05:40.029Z,2.10
2022-08-30T12:08:35.069Z,2.38
2022-08-30T12:11:12.438Z,2.03
2022-08-30T12:13:42.432Z,2.17
2022-08-30T12:16:13.923Z,2.00
2022-08-30T12:18:52.865Z,1.92
2022-08-30T12:21:22.245Z,2.10
2022-08-30T12:24:21.327Z,2.00
2022-08-30T12:26:51.165Z,2.20
2022-08-30T12:29:20.429Z,2.03
2022-08-30T12:31:55.807Z,2.25
2022-08-30T12:34:41.977Z,2.03
2022-08-30T12:37:13.195Z,2.33
2022-08-30T12:39:42.038Z,2.30
2022-08-30T12:42:14.672Z,2.03
2022-08-30T12:44:45.291Z,1.80
2022-08-30T12:47:12.806Z,2.20
2022-08-30T12:49:42.789Z,1.95
2022-08-30T12:52:29.744Z,1.88
2022-08-30T12:55:05.176Z,1.77
2022-08-30T12:58:00.778Z,1.80
2022-08-30T13:00:48.816Z,1.88
2022-08-30T13:03:33.340Z,1.70
2022-08-30T13:06:00.535Z,1.85
2022-08-30T13:08:45.709Z,1.98
2022-08-30T13:11:25.024Z,1.83
2022-08-30T13:14:30.473Z,2.13
2022-08-30T13:17:27.855Z,1.88
2022-08-30T13:19:59.416Z,2.20
2022-08-30T13:22:26.376Z,1.70
2022-08-30T13:24:54.149Z,2.15
2022-08-30T13:27:21.347Z,1.85
2022-08-30T13:29:48.960Z,1.77
2022-08-30T13:32:16.858Z,1.70
2022-08-30T13:34:44.061Z,2.00
2022-08-30T13:40:04.848Z,1.90
2022-08-30T13:42:32.481Z,2.00
2022-08-30T13:44:59.662Z,1.95
2022-08-30T13:47:35.010Z,2.10
2022-08-30T13:50:02.360Z,2.30
2022-08-30T13:52:29.474Z,2.28
2022-08-30T13:54:57.207Z,2.17
2022-08-30T14:00:19.208Z,1.80
2022-08-30T14:02:53.824Z,1.90
2022-08-30T14:11:01.336Z,4.10
2022-08-30T14:13:29.339Z,4.82
2022-08-30T14:18:44.855Z,6.28
2022-08-30T14:21:12.291Z,5.60
2022-08-30T14:23:39.301Z,4.90
2022-08-30T14:26:12.022Z,4.55
2022-08-30T14:28:39.340Z,4.15
2022-08-30T14:31:06.485Z,2.63
2022-08-30T14:33:33.555Z,2.60
2022-08-30T14:36:00.513Z,2.80
2022-08-30T14:38:27.617Z,2.50
2022-08-30T14:40:54.639Z,2.47
2022-08-30T14:43:21.785Z,1.80
2022-08-30T14:45:50.877Z,2.00
2022-08-30T14:48:18.052Z,2.00
2022-08-30T14:50:46.891Z,2.10
2022-08-30T14:53:13.906Z,1.83
2022-08-30T14:55:41.111Z,2.42
2022-08-30T14:58:10.742Z,2.20
2022-08-30T15:00:38.588Z,2.28
2022-08-30T15:03:05.780Z,2.30
2022-08-30T15:05:33.801Z,2.50
2022-08-30T15:08:01.049Z,2.40
2022-08-30T15:10:27.974Z,2.33
2022-08-30T15:12:55.013Z,2.10
2022-08-30T15:15:22.167Z,2.10
2022-08-30T15:17:49.464Z,2.20
2022-08-30T15:20:18.889Z,2.35
2022-08-30T15:22:46.247Z,2.10
2022-08-30T15:25:13.506Z,2.08
2022-08-30T15:27:40.463Z,1.60
2022-08-30T15:30:07.946Z,2.10
2022-08-30T15:32:37.920Z,1.80
2022-08-30T15:35:06.015Z,2.05
2022-08-30T15:37:34.995Z,2.10
2022-08-30T15:40:04.603Z,2.00
2022-08-30T15:42:32.143Z,1.70
2022-08-30T15:45:00.078Z,1.80
2022-08-30T15:47:27.119Z,1.83
2022-08-30T15:49:58.423Z,1.80
2022-08-30T15:52:25.690Z,1.92
2022-08-30T15:54:54.562Z,2.08
2022-08-30T15:57:22.023Z,2.30
2022-08-30T15:59:49.354Z,1.80
2022-08-30T16:02:16.770Z,1.80
2022-08-30T16:04:44.270Z,1.90
2022-08-30T16:07:13.835Z,1.90
2022-08-30T16:09:41.232Z,2.08
2022-08-30T16:12:11.393Z,2.10
2022-08-30T16:14:38.824Z,1.65
2022-08-30T16:17:06.433Z,2.15
2022-08-30T16:19:33.507Z,1.85
2022-08-30T16:22:01.198Z,1.70
2022-08-30T16:24:28.287Z,1.98
2022-08-30T16:26:55.868Z,1.67
2022-08-30T16:29:23.032Z,1.88
2022-08-30T16:31:50.194Z,1.90
2022-08-30T16:34:18.435Z,2.00
2022-08-30T16:36:45.630Z,1.77
2022-08-30T16:39:13.512Z,2.22
2022-08-30T16:41:41.705Z,2.00
2022-08-30T16:44:08.710Z,1.67
2022-08-30T16:46:40.305Z,1.92
2022-08-30T16:49:08.798Z,1.83
2022-08-30T16:51:36.197Z,1.88
2022-08-30T16:54:04.792Z,2.05
2022-08-30T16:56:32.331Z,2.33
2022-08-30T16:59:11.682Z,2.05
2022-08-30T17:01:39.868Z,2.08
2022-08-30T17:04:08.248Z,2.25
2022-08-30T17:06:35.842Z,2.10
2022-08-30T17:09:03.942Z,2.10
2022-08-30T17:11:32.527Z,2.10
2022-08-30T17:13:59.681Z,2.00
2022-08-30T17:16:29.956Z,1.98
2022-08-30T17:19:00.626Z,1.88
2022-08-30T17:21:29.313Z,2.28
2022-08-30T17:23:58.566Z,2.10
2022-08-30T17:26:33.339Z,2.10
2022-08-30T17:29:00.591Z,2.53
2022-08-30T17:31:30.667Z,2.58
2022-08-30T17:34:03.148Z,2.30
2022-08-30T17:36:35.491Z,2.50
2022-08-30T17:39:10.588Z,2.50
2022-08-30T17:41:39.726Z,2.10
2022-08-30T17:44:11.137Z,2.30
2022-08-30T17:46:38.146Z,2.10
2022-08-30T17:49:05.416Z,2.33
2022-08-30T17:51:32.549Z,2.10
2022-08-30T17:53:59.878Z,2.00
2022-08-30T17:56:33.980Z,2.33
2022-08-30T17:59:04.976Z,2.10
2022-08-30T18:01:32.299Z,2.45
2022-08-30T18:04:01.651Z,2.20
2022-08-30T18:06:29.500Z,2.30
2022-08-30T18:08:56.896Z,2.20
2022-08-30T18:11:24.075Z,2.00
2022-08-30T18:13:51.066Z,2.25
2022-08-30T18:16:21.536Z,2.20
2022-08-30T18:18:56.921Z,2.25
2022-08-30T18:21:41.433Z,2.25
2022-08-30T18:24:08.463Z,1.98
2022-08-30T18:26:35.812Z,2.10
2022-08-30T18:29:04.140Z,2.13
2022-08-30T18:31:31.097Z,2.05
2022-08-30T18:34:00.349Z,2.20
2022-08-30T18:36:28.695Z,1.98
2022-08-30T18:38:55.851Z,1.83
2022-08-30T18:41:23.658Z,1.85
2022-08-30T18:44:05.871Z,1.85
2022-08-30T18:46:51.269Z,1.80
2022-08-30T18:49:32.198Z,2.05
2022-08-30T18:52:01.500Z,1.92
2022-08-30T18:54:30.409Z,1.98
2022-08-30T18:56:58.790Z,2.10
2022-08-30T18:59:35.755Z,1.80
2022-08-30T19:02:05.077Z,2.15
2022-08-30T19:04:35.412Z,2.25
2022-08-30T19:07:04.990Z,1.92
2022-08-30T19:09:32.031Z,2.15
2022-08-30T19:11:59.376Z,2.05
2022-08-30T19:14:28.059Z,1.98
2022-08-30T19:16:56.677Z,2.22
2022-08-30T19:19:23.840Z,2.10
2022-08-30T19:21:51.744Z,2.25
2022-08-30T19:24:19.677Z,2.13
2022-08-30T19:26:47.143Z,2.60
2022-08-30T19:29:14.459Z,2.45
2022-08-30T19:31:42.120Z,2.22
2022-08-30T19:34:09.456Z,2.28
2022-08-30T19:36:36.460Z,2.40
2022-08-30T19:39:03.744Z,2.28
2022-08-30T19:41:30.798Z,2.15
2022-08-30T19:43:58.086Z,2.08
2022-08-30T19:46:28.184Z,2.28
2022-08-30T19:48:55.288Z,3.28
2022-08-30T19:51:22.630Z,2.25
2022-08-30T19:53:49.715Z,2.58
2022-08-30T19:56:17.681Z,2.55
2022-08-30T19:58:44.752Z,2.28
2022-08-30T20:01:12.930Z,2.33
2022-08-30T20:04:01.896Z,2.40
2022-08-30T20:06:29.539Z,2.30
2022-08-30T20:08:56.823Z,2.30
2022-08-30T20:11:25.381Z,2.70
2022-08-30T20:13:52.498Z,2.28
2022-08-30T20:16:20.590Z,2.30
2022-08-30T20:18:49.041Z,2.13
2022-08-30T20:21:16.165Z,2.80
2022-08-30T20:23:43.321Z,2.20
2022-08-30T20:26:10.742Z,2.13
2022-08-30T20:28:37.792Z,2.00
2022-08-30T20:31:05.737Z,2.80
2022-08-30T20:33:33.967Z,2.67
2022-08-30T20:36:01.692Z,2.38
2022-08-30T20:38:28.704Z,2.40
2022-08-30T20:40:56.935Z,2.42
2022-08-30T20:43:25.447Z,2.22
2022-08-30T20:45:52.966Z,2.45
2022-08-30T20:48:20.601Z,2.17
2022-08-30T20:50:47.743Z,2.45
2022-08-30T20:53:15.036Z,2.60
2022-08-30T20:55:46.612Z,2.33
2022-08-30T20:58:14.573Z,2.78
2022-08-30T21:00:45.879Z,2.90
2022-08-30T21:05:55.653Z,2.40
2022-08-30T21:08:22.722Z,2.75
2022-08-30T21:10:49.838Z,3.55
2022-08-30T21:13:17.330Z,2.72
2022-08-30T21:15:46.225Z,2.55
2022-08-30T21:18:14.159Z,2.45
2022-08-30T21:20:41.341Z,2.60
2022-08-30T21:23:08.257Z,2.42
2022-08-30T21:25:41.277Z,2.33
2022-08-30T21:28:08.905Z,2.90
2022-08-30T21:30:36.291Z,2.40
2022-08-30T21:33:04.291Z,1.92
2022-08-30T21:35:50.153Z,2.33
2022-08-30T21:38:17.481Z,2.15
2022-08-30T21:40:44.860Z,2.10
2022-08-30T21:43:12.034Z,2.55
2022-08-30T21:45:42.478Z,2.85
2022-08-30T21:48:10.676Z,2.40
2022-08-30T21:50:43.511Z,2.40
2022-08-30T21:53:10.635Z,2.40
2022-08-30T21:55:37.736Z,2.33
2022-08-30T21:58:04.832Z,2.10
2022-08-30T22:00:33.675Z,2.30
2022-08-30T22:03:00.862Z,2.33
2022-08-30T22:05:28.137Z,2.50
2022-08-30T22:07:55.062Z,2.20
2022-08-30T22:10:22.117Z,2.50
2022-08-30T22:12:49.122Z,2.30
2022-08-30T22:15:16.373Z,2.63
2022-08-30T22:17:43.721Z,2.83
2022-08-30T22:20:11.932Z,2.47
2022-08-30T22:22:45.544Z,2.80
2022-08-30T22:25:12.525Z,2.45
2022-08-30T22:27:39.635Z,2.33
2022-08-30T22:30:07.133Z,2.63
2022-08-30T22:32:34.316Z,2.45
2022-08-30T22:35:01.236Z,2.30
2022-08-30T22:37:30.171Z,2.40
2022-08-30T22:39:57.130Z,2.65
2022-08-30T22:42:24.390Z,2.67
2022-08-30T22:44:52.301Z,2.60
2022-08-30T22:47:19.334Z,2.70
2022-08-30T22:49:46.248Z,2.67
2022-08-30T22:52:14.406Z,2.50
2022-08-30T22:54:41.339Z,2.30
2022-08-30T22:57:09.264Z,2.50
2022-08-30T22:59:36.247Z,2.30
2022-08-30T23:02:03.526Z,2.38
2022-08-30T23:04:37.295Z,2.40
2022-08-30T23:07:04.556Z,2.40
2022-08-30T23:09:31.522Z,2.35
2022-08-30T23:11:58.451Z,2.40
2022-08-30T23:14:25.466Z,2.60
2022-08-30T23:16:52.644Z,2.55
2022-08-30T23:19:19.810Z,2.15
2022-08-30T23:21:46.766Z,2.70
2022-08-30T23:24:32.095Z,2.60
2022-08-30T23:27:18.007Z,2.47
2022-08-30T23:30:04.296Z,2.30
2022-08-30T23:32:49.643Z,2.53
2022-08-30T23:35:35.236Z,2.60
2022-08-30T23:38:24.364Z,2.30
2022-08-30T23:41:09.796Z,2.58
2022-08-30T23:43:55.494Z,2.50
2022-08-30T23:46:40.870Z,2.40
2022-08-30T23:49:26.275Z,2.30
2022-08-30T23:52:11.781Z,2.40
2022-08-30T23:54:57.643Z,2.42
2022-08-30T23:57:44.218Z,2.20
